createdAt,value
2023-05-19T00:00:31.099Z,2.10
2023-05-19T00:03:21.921Z,2.22
2023-05-19T00:05:54.509Z,2.05
2023-05-19T00:08:25.998Z,2.15
2023-05-19T00:10:55.626Z,2.15
2023-05-19T00:13:27.069Z,2.03
2023-05-19T00:15:56.559Z,2.13
2023-05-19T00:18:26.655Z,2.33
2023-05-19T00:20:55.679Z,1.83
2023-05-19T00:23:24.704Z,1.90
2023-05-19T00:25:54.134Z,2.20
2023-05-19T00:28:23.175Z,1.48
2023-05-19T00:30:53.910Z,1.63
2023-05-19T00:33:23.091Z,1.58
2023-05-19T00:35:52.034Z,2.03
2023-05-19T00:38:22.156Z,1.60
2023-05-19T00:40:51.608Z,1.80
2023-05-19T00:43:20.671Z,1.67
2023-05-19T00:45:49.531Z,1.42
2023-05-19T00:48:19.974Z,1.60
2023-05-19T00:50:51.268Z,1.58
2023-05-19T00:53:20.579Z,1.08
2023-05-19T00:55:50.340Z,1.15
2023-05-19T00:58:20.804Z,1.70
2023-05-19T01:00:49.767Z,1.20
2023-05-19T01:03:20.933Z,1.10
2023-05-19T01:05:49.919Z,1.27
2023-05-19T01:08:19.163Z,1.30
2023-05-19T01:10:48.046Z,1.67
2023-05-19T01:13:17.544Z,1.20
2023-05-19T01:16:02.623Z,1.20
2023-05-19T01:18:46.569Z,1.13
2023-05-19T01:21:54.474Z,1.10
2023-05-19T01:24:55.003Z,1.08
2023-05-19T01:27:56.472Z,1.10
2023-05-19T01:30:34.948Z,1.20
2023-05-19T01:33:08.440Z,1.38
2023-05-19T01:35:40.169Z,1.20
2023-05-19T01:38:12.538Z,1.20
2023-05-19T01:40:43.913Z,1.33
2023-05-19T01:43:16.992Z,1.25
2023-05-19T01:45:49.021Z,1.20
2023-05-19T01:48:18.962Z,1.10
2023-05-19T01:50:48.653Z,1.33
2023-05-19T01:53:17.635Z,1.25
2023-05-19T01:55:51.049Z,1.40
2023-05-19T01:58:39.023Z,1.10
2023-05-19T02:01:23.136Z,1.10
2023-05-19T02:04:19.792Z,1.60
2023-05-19T02:07:03.161Z,1.27
2023-05-19T02:09:42.167Z,1.20
2023-05-19T02:12:20.712Z,1.50
2023-05-19T02:14:56.008Z,1.38
2023-05-19T02:17:33.228Z,1.67
2023-05-19T02:20:02.267Z,1.88
2023-05-19T02:22:31.565Z,1.63
2023-05-19T02:25:00.370Z,1.40
2023-05-19T02:27:30.051Z,1.48
2023-05-19T02:29:58.979Z,1.60
2023-05-19T02:32:29.677Z,1.85
2023-05-19T02:34:58.467Z,1.67
2023-05-19T02:37:28.700Z,1.75
2023-05-19T02:39:57.501Z,1.70
2023-05-19T02:42:26.471Z,1.70
2023-05-19T02:44:56.904Z,1.70
2023-05-19T02:47:26.055Z,2.00
2023-05-19T02:49:56.188Z,1.90
2023-05-19T02:52:25.220Z,1.70
2023-05-19T02:54:54.016Z,1.75
2023-05-19T02:57:23.064Z,2.15
2023-05-19T02:59:52.218Z,2.20
2023-05-19T03:02:21.587Z,1.92
2023-05-19T03:04:51.004Z,2.33
2023-05-19T03:07:25.102Z,2.10
2023-05-19T03:09:54.272Z,2.40
2023-05-19T03:12:23.256Z,2.17
2023-05-19T03:14:52.270Z,2.13
2023-05-19T03:17:21.372Z,2.20
2023-05-19T03:19:51.230Z,2.47
2023-05-19T03:22:22.083Z,2.33
2023-05-19T03:24:51.619Z,2.10
2023-05-19T03:27:20.728Z,2.30
2023-05-19T03:29:49.567Z,2.20
2023-05-19T03:32:18.929Z,2.30
2023-05-19T03:34:48.709Z,2.25
2023-05-19T03:37:18.191Z,2.50
2023-05-19T03:39:48.701Z,2.38
2023-05-19T03:42:18.270Z,2.63
2023-05-19T03:44:47.105Z,2.45
2023-05-19T03:47:16.517Z,2.45
2023-05-19T03:50:09.975Z,2.88
2023-05-19T03:52:52.203Z,2.80
2023-05-19T03:55:31.034Z,3.40
2023-05-19T03:58:00.162Z,3.03
2023-05-19T04:00:28.914Z,3.25
2023-05-19T04:02:58.269Z,3.20
2023-05-19T04:05:27.408Z,2.78
2023-05-19T04:07:56.603Z,3.35
2023-05-19T04:10:25.506Z,3.40
2023-05-19T04:12:58.474Z,2.85
2023-05-19T04:15:28.414Z,2.70
2023-05-19T04:17:57.728Z,2.78
2023-05-19T04:20:26.563Z,3.10
2023-05-19T04:22:55.706Z,2.88
2023-05-19T04:25:25.399Z,2.55
2023-05-19T04:27:57.705Z,3.15
2023-05-19T04:30:28.639Z,3.03
2023-05-19T04:33:01.246Z,2.92
2023-05-19T04:35:30.520Z,3.08
2023-05-19T04:38:01.971Z,2.40
2023-05-19T04:40:34.259Z,2.70
2023-05-19T04:43:04.209Z,2.80
2023-05-19T04:45:37.731Z,2.55
2023-05-19T04:48:08.215Z,2.80
2023-05-19T04:50:38.606Z,2.67
2023-05-19T04:53:07.790Z,2.70
2023-05-19T04:55:38.687Z,2.60
2023-05-19T04:58:08.638Z,2.42
2023-05-19T05:00:38.954Z,2.60
2023-05-19T05:03:10.051Z,2.70
2023-05-19T05:05:39.068Z,2.53
2023-05-19T05:08:08.140Z,2.35
2023-05-19T05:10:42.139Z,2.60
2023-05-19T05:13:12.079Z,2.50
2023-05-19T05:15:43.851Z,2.58
2023-05-19T05:18:14.446Z,2.50
2023-05-19T05:20:44.521Z,2.45
2023-05-19T05:23:15.265Z,2.70
2023-05-19T05:25:48.173Z,2.58
2023-05-19T05:28:18.675Z,2.47
2023-05-19T05:30:50.485Z,2.90
2023-05-19T05:33:22.406Z,2.90
2023-05-19T05:35:51.627Z,2.63
2023-05-19T05:38:20.916Z,2.40
2023-05-19T05:40:50.464Z,3.00
2023-05-19T05:43:19.712Z,2.72
2023-05-19T05:45:56.283Z,2.53
2023-05-19T05:48:27.024Z,2.80
2023-05-19T05:50:58.155Z,2.58
2023-05-19T05:53:37.040Z,2.90
2023-05-19T05:56:08.130Z,2.97
2023-05-19T05:58:45.269Z,2.55
2023-05-19T06:01:16.941Z,2.67
2023-05-19T06:03:46.766Z,2.50
2023-05-19T06:06:21.354Z,2.90
2023-05-19T06:08:50.649Z,2.58
2023-05-19T06:11:20.117Z,2.60
2023-05-19T06:13:50.108Z,2.60
2023-05-19T06:16:37.819Z,2.35
2023-05-19T06:19:07.103Z,2.58
2023-05-19T06:21:35.938Z,2.53
2023-05-19T06:24:05.274Z,2.63
2023-05-19T06:26:34.025Z,2.30
2023-05-19T06:29:03.326Z,2.60
2023-05-19T06:31:33.791Z,2.70
2023-05-19T06:34:16.396Z,2.90
2023-05-19T06:36:45.397Z,2.40
2023-05-19T06:39:15.599Z,2.20
2023-05-19T06:41:44.725Z,2.55
2023-05-19T06:44:25.991Z,2.38
2023-05-19T06:46:55.248Z,2.47
2023-05-19T06:49:29.428Z,2.28
2023-05-19T06:51:58.522Z,2.72
2023-05-19T06:54:28.638Z,2.28
2023-05-19T06:56:58.860Z,2.03
2023-05-19T06:59:28.437Z,2.17
2023-05-19T07:01:57.926Z,2.40
2023-05-19T07:04:28.570Z,1.90
2023-05-19T07:06:58.763Z,2.75
2023-05-19T07:09:28.699Z,2.53
2023-05-19T07:11:59.010Z,2.50
2023-05-19T07:14:28.634Z,2.67
2023-05-19T07:16:57.653Z,2.42
2023-05-19T07:19:28.374Z,2.50
2023-05-19T07:21:59.380Z,2.60
2023-05-19T07:24:28.727Z,2.63
2023-05-19T07:26:58.702Z,2.60
2023-05-19T07:29:27.912Z,2.72
2023-05-19T07:31:58.216Z,2.33
2023-05-19T07:34:28.952Z,2.60
2023-05-19T07:36:58.033Z,2.70
2023-05-19T07:39:29.801Z,3.10
2023-05-19T07:41:59.430Z,2.55
2023-05-19T07:44:31.340Z,2.60
2023-05-19T07:47:00.835Z,2.83
2023-05-19T07:49:31.484Z,2.80
2023-05-19T07:52:00.421Z,2.80
2023-05-19T07:54:29.647Z,3.03
2023-05-19T07:56:58.636Z,2.75
2023-05-19T07:59:28.036Z,2.97
2023-05-19T08:01:57.013Z,3.20
2023-05-19T08:04:26.293Z,2.70
2023-05-19T08:06:56.624Z,2.72
2023-05-19T08:09:26.168Z,3.42
2023-05-19T08:11:55.174Z,2.80
2023-05-19T08:14:24.401Z,2.92
2023-05-19T08:16:53.434Z,3.10
2023-05-19T08:19:22.904Z,2.97
2023-05-19T08:21:51.922Z,3.35
2023-05-19T08:24:22.750Z,3.35
2023-05-19T08:26:51.786Z,3.10
2023-05-19T08:29:21.100Z,3.45
2023-05-19T08:31:50.297Z,3.50
2023-05-19T08:34:19.604Z,3.15
2023-05-19T08:36:48.563Z,3.38
2023-05-19T08:39:19.715Z,3.50
2023-05-19T08:41:50.082Z,3.95
2023-05-19T08:44:19.758Z,3.60
2023-05-19T08:46:49.358Z,3.33
2023-05-19T08:49:27.612Z,4.00
2023-05-19T08:52:07.455Z,3.70
2023-05-19T08:54:47.194Z,3.75
2023-05-19T08:57:18.372Z,3.55
2023-05-19T08:59:49.088Z,3.90
2023-05-19T09:02:19.648Z,3.65
2023-05-19T09:04:49.841Z,3.80
2023-05-19T09:07:19.993Z,3.28
2023-05-19T09:09:50.101Z,4.18
2023-05-19T09:12:20.517Z,3.58
2023-05-19T09:14:50.228Z,4.40
2023-05-19T09:17:19.311Z,3.47
2023-05-19T09:19:49.351Z,3.90
2023-05-19T09:22:19.374Z,3.80
2023-05-19T09:24:49.359Z,3.80
2023-05-19T09:27:24.497Z,4.60
2023-05-19T09:29:53.864Z,4.32
2023-05-19T09:32:27.695Z,3.63
2023-05-19T09:34:57.227Z,4.57
2023-05-19T09:37:29.244Z,4.03
2023-05-19T09:39:58.666Z,3.85
2023-05-19T09:42:30.258Z,4.20
2023-05-19T09:45:04.067Z,4.13
2023-05-19T09:47:38.371Z,3.60
2023-05-19T09:50:10.361Z,3.70
2023-05-19T09:52:41.011Z,3.83
2023-05-19T09:55:13.209Z,3.75
2023-05-19T09:57:46.348Z,4.60
2023-05-19T10:00:17.557Z,4.20
2023-05-19T10:02:48.875Z,4.80
2023-05-19T10:05:20.578Z,4.05
2023-05-19T10:07:53.130Z,4.40
2023-05-19T10:10:23.532Z,4.40
2023-05-19T10:12:56.311Z,4.72
2023-05-19T10:15:26.487Z,4.47
2023-05-19T10:17:57.502Z,4.93
2023-05-19T10:20:28.552Z,4.40
2023-05-19T10:22:57.657Z,4.55
2023-05-19T10:25:27.137Z,4.63
2023-05-19T10:28:03.244Z,4.40
2023-05-19T10:30:38.470Z,4.38
2023-05-19T10:33:13.327Z,4.57
2023-05-19T10:36:17.624Z,4.68
2023-05-19T10:38:57.793Z,4.68
2023-05-19T10:41:39.209Z,5.18
2023-05-19T10:44:17.680Z,4.75
2023-05-19T10:46:47.240Z,5.00
2023-05-19T10:49:22.845Z,4.95
2023-05-19T10:51:56.166Z,4.90
2023-05-19T10:54:47.273Z,5.28
2023-05-19T10:57:17.713Z,4.53
2023-05-19T10:59:49.997Z,5.15
2023-05-19T11:02:41.210Z,5.05
2023-05-19T11:05:14.548Z,5.75
2023-05-19T11:07:46.139Z,4.68
2023-05-19T11:10:15.214Z,5.40
2023-05-19T11:12:46.715Z,5.13
2023-05-19T11:15:18.032Z,5.60
2023-05-19T11:17:49.918Z,5.18
2023-05-19T11:20:25.302Z,5.38
2023-05-19T11:23:08.706Z,5.43
2023-05-19T11:25:46.960Z,5.57
2023-05-19T11:28:19.558Z,5.45
2023-05-19T11:30:51.865Z,5.53
2023-05-19T11:33:27.255Z,5.70
2023-05-19T11:35:59.045Z,5.38
2023-05-19T11:38:31.015Z,5.32
2023-05-19T11:40:59.868Z,5.78
2023-05-19T11:43:29.089Z,6.32
2023-05-19T11:45:59.478Z,5.10
2023-05-19T11:48:31.283Z,4.78
2023-05-19T11:51:01.864Z,5.28
2023-05-19T11:53:33.230Z,5.43
2023-05-19T11:56:05.639Z,5.75
2023-05-19T11:58:34.754Z,5.80
2023-05-19T12:01:06.984Z,6.32
2023-05-19T12:03:36.327Z,6.18
2023-05-19T12:06:08.487Z,5.53
2023-05-19T12:08:38.544Z,5.65
2023-05-19T12:11:08.380Z,5.45
2023-05-19T12:13:38.016Z,5.43
2023-05-19T12:16:09.909Z,5.68
2023-05-19T12:18:40.432Z,5.45
2023-05-19T12:21:09.339Z,5.13
2023-05-19T12:23:40.101Z,4.90
2023-05-19T12:26:09.740Z,5.20
2023-05-19T12:28:38.931Z,4.65
2023-05-19T12:31:09.367Z,4.82
2023-05-19T12:33:38.587Z,4.63
2023-05-19T12:36:08.982Z,4.35
2023-05-19T12:38:39.665Z,3.90
2023-05-19T12:41:08.584Z,5.00
2023-05-19T12:43:38.234Z,4.53
2023-05-19T12:46:16.677Z,4.65
2023-05-19T12:48:46.840Z,4.90
2023-05-19T12:51:19.280Z,4.57
2023-05-19T12:53:51.621Z,4.28
2023-05-19T12:56:21.294Z,4.75
2023-05-19T12:58:56.159Z,4.63
2023-05-19T13:01:26.414Z,5.45
2023-05-19T13:03:55.763Z,4.97
2023-05-19T13:06:24.886Z,4.85
2023-05-19T13:08:53.991Z,5.22
2023-05-19T13:11:22.692Z,4.93
2023-05-19T13:13:51.880Z,5.35
2023-05-19T13:16:20.844Z,5.38
2023-05-19T13:18:51.601Z,5.35
2023-05-19T13:21:20.547Z,4.93
2023-05-19T13:23:49.681Z,4.70
2023-05-19T13:26:18.591Z,4.97
2023-05-19T13:28:47.936Z,4.80
2023-05-19T13:31:16.757Z,4.68
2023-05-19T13:33:45.939Z,4.60
2023-05-19T13:36:16.286Z,5.00
2023-05-19T13:38:45.435Z,4.80
2023-05-19T13:44:03.336Z,5.20
2023-05-19T13:46:43.871Z,4.65
2023-05-19T13:49:14.192Z,4.53
2023-05-19T13:51:32.937Z,4.55
2023-05-19T13:51:45.324Z,4.60
2023-05-19T13:54:14.750Z,4.90
2023-05-19T13:56:46.087Z,4.55
2023-05-19T13:59:15.823Z,4.95
2023-05-19T14:01:45.593Z,4.75
2023-05-19T14:04:15.293Z,4.53
2023-05-19T14:06:45.944Z,4.85
2023-05-19T14:09:15.076Z,4.88
2023-05-19T14:11:44.612Z,5.20
2023-05-19T14:14:13.629Z,5.07
2023-05-19T14:16:42.919Z,4.85
2023-05-19T14:19:12.521Z,5.68
2023-05-19T14:21:41.356Z,4.95
2023-05-19T14:24:11.961Z,4.95
2023-05-19T14:26:40.797Z,4.93
2023-05-19T14:29:09.919Z,4.97
2023-05-19T14:31:38.956Z,4.63
2023-05-19T14:34:08.141Z,4.50
2023-05-19T14:36:36.950Z,4.93
2023-05-19T14:39:06.059Z,5.53
2023-05-19T14:41:36.376Z,4.88
2023-05-19T14:44:07.009Z,4.95
2023-05-19T14:46:36.253Z,4.70
2023-05-19T14:49:06.552Z,5.35
2023-05-19T14:51:35.501Z,5.78
2023-05-19T14:54:04.953Z,5.63
2023-05-19T14:56:35.153Z,6.00
2023-05-19T14:59:04.957Z,5.30
2023-05-19T15:01:33.818Z,5.13
2023-05-19T15:04:02.977Z,4.57
2023-05-19T15:06:31.824Z,5.45
2023-05-19T15:09:01.013Z,5.43
2023-05-19T15:11:30.315Z,4.38
2023-05-19T15:14:00.736Z,5.65
2023-05-19T15:16:29.538Z,4.97
2023-05-19T15:18:58.881Z,5.10
2023-05-19T15:21:28.259Z,5.25
2023-05-19T15:23:57.364Z,5.35
2023-05-19T15:26:27.632Z,5.22
2023-05-19T15:29:00.130Z,4.90
2023-05-19T15:31:29.105Z,4.97
2023-05-19T15:33:58.197Z,5.03
2023-05-19T15:36:27.055Z,4.68
2023-05-19T15:38:56.243Z,4.30
2023-05-19T15:41:25.657Z,5.22
2023-05-19T15:43:54.777Z,4.80
2023-05-19T15:46:25.073Z,5.30
2023-05-19T15:48:54.238Z,5.40
2023-05-19T15:51:23.722Z,4.47
2023-05-19T15:53:53.237Z,5.10
2023-05-19T15:56:22.637Z,5.40
2023-05-19T15:58:51.983Z,5.28
2023-05-19T16:01:21.669Z,4.90
2023-05-19T16:03:52.234Z,5.05
2023-05-19T16:06:21.583Z,5.03
2023-05-19T16:08:50.685Z,4.75
2023-05-19T16:11:20.702Z,4.50
2023-05-19T16:13:50.002Z,5.10
2023-05-19T16:16:18.928Z,4.80
2023-05-19T16:18:48.119Z,5.63
2023-05-19T16:21:18.285Z,5.57
2023-05-19T16:23:47.690Z,5.47
2023-05-19T16:26:16.422Z,4.70
2023-05-19T16:28:45.552Z,5.18
2023-05-19T16:31:14.519Z,4.68
2023-05-19T16:33:43.622Z,4.95
2023-05-19T16:36:12.559Z,5.50
2023-05-19T16:38:42.992Z,5.13
2023-05-19T16:41:13.211Z,5.50
2023-05-19T16:43:42.309Z,5.82
2023-05-19T16:46:12.396Z,4.95
2023-05-19T16:48:41.715Z,5.57
2023-05-19T16:51:10.504Z,5.47
2023-05-19T16:53:40.067Z,5.63
2023-05-19T16:56:10.275Z,5.13
2023-05-19T16:58:39.310Z,5.05
2023-05-19T17:01:09.933Z,5.65
2023-05-19T17:03:39.248Z,5.75
2023-05-19T17:06:08.271Z,6.22
2023-05-19T17:08:37.394Z,5.75
2023-05-19T17:11:06.589Z,6.03
2023-05-19T17:13:37.281Z,5.82
2023-05-19T17:16:06.641Z,5.53
2023-05-19T17:18:35.888Z,5.78
2023-05-19T17:21:05.418Z,4.65
2023-05-19T17:23:34.647Z,5.13
2023-05-19T17:26:03.609Z,5.25
2023-05-19T17:28:32.678Z,5.05
2023-05-19T17:31:03.264Z,5.00
2023-05-19T17:33:32.552Z,5.30
2023-05-19T17:36:04.204Z,5.15
2023-05-19T17:38:33.548Z,5.75
2023-05-19T17:41:04.823Z,5.25
2023-05-19T17:43:34.087Z,5.80
2023-05-19T17:46:04.431Z,5.68
2023-05-19T17:48:33.749Z,5.70
2023-05-19T17:51:05.127Z,5.20
2023-05-19T17:53:36.613Z,6.32
2023-05-19T17:56:09.676Z,5.38
2023-05-19T17:58:39.627Z,6.28
2023-05-19T18:01:11.052Z,5.68
2023-05-19T18:03:40.967Z,5.40
2023-05-19T18:06:11.826Z,5.20
2023-05-19T18:08:43.186Z,5.97
2023-05-19T18:11:13.486Z,5.22
2023-05-19T18:13:43.005Z,6.13
2023-05-19T18:16:14.515Z,5.97
2023-05-19T18:18:46.368Z,5.78
2023-05-19T18:21:17.851Z,6.50
2023-05-19T18:23:48.179Z,6.15
2023-05-19T18:26:17.163Z,6.32
2023-05-19T18:28:46.458Z,6.15
2023-05-19T18:31:19.540Z,6.07
2023-05-19T18:33:49.286Z,6.68
2023-05-19T18:36:18.075Z,7.20
2023-05-19T18:38:51.064Z,6.63
2023-05-19T18:41:19.989Z,7.32
2023-05-19T18:43:49.668Z,7.38
2023-05-19T18:46:20.611Z,6.90
2023-05-19T18:48:50.720Z,7.90
2023-05-19T18:51:21.359Z,7.22
2023-05-19T18:53:50.798Z,7.80
2023-05-19T18:56:26.174Z,7.32
2023-05-19T18:58:55.941Z,7.47
2023-05-19T19:01:26.275Z,7.55
2023-05-19T19:03:55.448Z,7.22
2023-05-19T19:06:24.413Z,7.70
2023-05-19T19:08:53.559Z,7.65
2023-05-19T19:11:22.567Z,6.97
2023-05-19T19:13:54.548Z,6.75
2023-05-19T19:16:24.995Z,6.22
2023-05-19T19:18:54.518Z,7.53
2023-05-19T19:21:24.126Z,7.57
2023-05-19T19:23:55.515Z,7.22
2023-05-19T19:26:25.412Z,7.13
2023-05-19T19:28:54.603Z,7.00
2023-05-19T19:31:23.797Z,6.35
2023-05-19T19:33:58.982Z,6.15
2023-05-19T19:36:28.235Z,6.75
2023-05-19T19:38:57.458Z,6.05
2023-05-19T19:41:26.573Z,6.53
2023-05-19T19:43:55.720Z,6.80
2023-05-19T19:46:24.754Z,7.28
2023-05-19T19:48:59.221Z,6.65
2023-05-19T19:51:28.569Z,6.85
2023-05-19T19:53:58.090Z,7.20
2023-05-19T19:56:27.724Z,6.88
2023-05-19T19:58:59.026Z,7.22
2023-05-19T20:01:28.358Z,7.03
2023-05-19T20:03:58.943Z,7.57
2023-05-19T20:06:28.024Z,7.03
2023-05-19T20:08:57.089Z,7.32
2023-05-19T20:11:26.824Z,8.57
2023-05-19T20:13:55.993Z,7.85
2023-05-19T20:16:25.218Z,7.70
2023-05-19T20:18:54.685Z,8.38
2023-05-19T20:21:24.832Z,7.78
2023-05-19T20:23:53.945Z,8.48
2023-05-19T20:26:22.760Z,8.57
2023-05-19T20:28:52.066Z,8.50
2023-05-19T20:31:21.578Z,9.00
2023-05-19T20:33:50.778Z,8.52
2023-05-19T20:36:19.924Z,9.02
2023-05-19T20:38:50.334Z,8.45
2023-05-19T20:41:19.179Z,9.07
2023-05-19T20:43:48.215Z,8.73
2023-05-19T20:46:17.291Z,9.35
2023-05-19T20:48:46.408Z,8.38
2023-05-19T20:51:15.243Z,8.07
2023-05-19T20:53:44.286Z,8.55
2023-05-19T20:56:14.914Z,7.70
2023-05-19T20:58:44.050Z,7.45
2023-05-19T21:01:12.936Z,7.15
2023-05-19T21:03:42.058Z,7.43
2023-05-19T21:06:10.975Z,6.85
2023-05-19T21:08:40.111Z,7.22
2023-05-19T21:11:08.901Z,7.72
2023-05-19T21:13:39.676Z,7.35
2023-05-19T21:16:08.881Z,7.63
2023-05-19T21:18:38.056Z,7.70
2023-05-19T21:21:07.081Z,6.97
2023-05-19T21:23:36.177Z,8.10
2023-05-19T21:26:06.033Z,7.75
2023-05-19T21:28:35.092Z,7.65
2023-05-19T21:31:06.118Z,8.15
2023-05-19T21:33:35.286Z,6.53
2023-05-19T21:36:04.122Z,6.70
2023-05-19T21:38:33.188Z,7.18
2023-05-19T21:41:02.028Z,7.00
2023-05-19T21:43:31.188Z,7.20
2023-05-19T21:45:59.951Z,7.30
2023-05-19T21:48:31.017Z,7.38
2023-05-19T21:50:59.944Z,8.48
2023-05-19T21:53:29.190Z,7.45
2023-05-19T21:55:58.109Z,7.57
2023-05-19T21:58:27.435Z,7.22
2023-05-19T22:00:56.254Z,8.20
2023-05-19T22:03:25.479Z,7.40
2023-05-19T22:05:57.629Z,6.80
2023-05-19T22:08:26.766Z,6.65
2023-05-19T22:10:55.760Z,7.20
2023-05-19T22:13:24.965Z,7.65
2023-05-19T22:15:53.815Z,7.65
2023-05-19T22:18:22.982Z,7.40
2023-05-19T22:20:52.061Z,7.45
2023-05-19T22:23:22.534Z,8.55
2023-05-19T22:25:51.417Z,8.07
2023-05-19T22:28:20.527Z,7.78
2023-05-19T22:30:49.340Z,8.35
2023-05-19T22:33:18.335Z,8.40
2023-05-19T22:35:47.211Z,8.02
2023-05-19T22:38:16.317Z,8.23
2023-05-19T22:40:46.597Z,8.95
2023-05-19T22:43:15.667Z,8.30
2023-05-19T22:45:44.575Z,8.93
2023-05-19T22:48:13.666Z,8.77
2023-05-19T22:50:42.498Z,8.98
2023-05-19T22:53:11.655Z,8.27
2023-05-19T22:55:40.594Z,8.13
2023-05-19T22:58:11.003Z,8.10
2023-05-19T23:00:39.712Z,8.13
2023-05-19T23:03:08.765Z,7.47
2023-05-19T23:05:37.494Z,8.55
2023-05-19T23:08:07.171Z,9.05
2023-05-19T23:10:35.947Z,8.65
2023-05-19T23:13:05.061Z,8.40
2023-05-19T23:15:35.357Z,9.20
2023-05-19T23:18:07.292Z,8.95
2023-05-19T23:20:36.566Z,8.52
2023-05-19T23:23:05.816Z,9.00
2023-05-19T23:25:34.846Z,8.77
2023-05-19T23:28:04.217Z,8.35
2023-05-19T23:30:37.408Z,9.27
2023-05-19T23:33:06.406Z,8.48
2023-05-19T23:35:35.448Z,9.02
2023-05-19T23:38:04.772Z,10.10
2023-05-19T23:40:33.622Z,8.68
2023-05-19T23:43:02.639Z,9.20
2023-05-19T23:45:31.499Z,8.52
2023-05-19T23:48:02.105Z,8.95
2023-05-19T23:50:30.919Z,9.52
2023-05-19T23:53:00.804Z,9.27
2023-05-19T23:55:29.553Z,8.52
2023-05-19T23:57:58.635Z,9.68
